sensor_id;sensor_type;location;lat;lon;timestamp;pressure;altitude;pressure_sealevel;temperature;humidity
35419;BME280;21525;41.240;16.500;2023-06-10T00:01:45;100897.59;;;28.98;81.44
35419;BME280;21525;41.240;16.500;2023-06-10T00:04:15;100899.63;;;29.05;79.50
35419;BME280;21525;41.240;16.500;2023-06-10T00:06:43;100905.34;;;28.91;79.59
35419;BME280;21525;41.240;16.500;2023-06-10T00:09:09;100899.00;;;28.71;81.41
35419;BME280;21525;41.240;16.500;2023-06-10T00:11:39;100896.66;;;28.78;80.85
35419;BME280;21525;41.240;16.500;2023-06-10T00:14:06;100898.13;;;28.92;80.31
35419;BME280;21525;41.240;16.500;2023-06-10T00:16:32;100890.19;;;28.81;80.52
35419;BME280;21525;41.240;16.500;2023-06-10T00:19:02;100888.00;;;28.86;80.56
35419;BME280;21525;41.240;16.500;2023-06-10T00:21:30;100888.38;;;29.12;79.02
35419;BME280;21525;41.240;16.500;2023-06-10T00:23:56;100886.56;;;28.82;79.84
35419;BME280;21525;41.240;16.500;2023-06-10T00:26:22;100893.94;;;28.99;79.58
35419;BME280;21525;41.240;16.500;2023-06-10T00:28:49;100885.41;;;29.45;75.83
35419;BME280;21525;41.240;16.500;2023-06-10T00:31:15;100890.41;;;29.29;75.36
35419;BME280;21525;41.240;16.500;2023-06-10T00:33:41;100886.44;;;28.93;77.86
35419;BME280;21525;41.240;16.500;2023-06-10T00:36:07;100886.28;;;28.85;77.99
35419;BME280;21525;41.240;16.500;2023-06-10T00:38:33;100892.75;;;28.82;78.89
35419;BME280;21525;41.240;16.500;2023-06-10T00:40:58;100876.69;;;28.82;77.27
35419;BME280;21525;41.240;16.500;2023-06-10T00:43:25;100880.69;;;29.37;74.70
35419;BME280;21525;41.240;16.500;2023-06-10T00:45:51;100879.81;;;28.87;76.15
35419;BME280;21525;41.240;16.500;2023-06-10T00:48:18;100878.47;;;29.02;75.53
35419;BME280;21525;41.240;16.500;2023-06-10T00:50:45;100878.25;;;28.85;75.21
35419;BME280;21525;41.240;16.500;2023-06-10T00:53:12;100881.53;;;28.26;78.63
35419;BME280;21525;41.240;16.500;2023-06-10T00:55:40;100875.69;;;28.62;77.27
35419;BME280;21525;41.240;16.500;2023-06-10T00:58:08;100875.69;;;28.62;76.42
35419;BME280;21525;41.240;16.500;2023-06-10T01:00:34;100878.47;;;28.51;76.50
35419;BME280;21525;41.240;16.500;2023-06-10T01:03:02;100878.66;;;28.38;77.29
35419;BME280;21525;41.240;16.500;2023-06-10T01:05:34;100882.84;;;28.52;76.31
35419;BME280;21525;41.240;16.500;2023-06-10T01:10:36;100884.47;;;28.43;74.43
35419;BME280;21525;41.240;16.500;2023-06-10T01:13:06;100897.97;;;28.42;75.70
35419;BME280;21525;41.240;16.500;2023-06-10T01:15:34;100897.44;;;28.27;74.63
35419;BME280;21525;41.240;16.500;2023-06-10T01:18:05;100896.97;;;28.64;73.26
35419;BME280;21525;41.240;16.500;2023-06-10T01:20:35;100897.06;;;28.53;73.33
35419;BME280;21525;41.240;16.500;2023-06-10T01:23:02;100906.34;;;28.49;73.05
35419;BME280;21525;41.240;16.500;2023-06-10T01:25:29;100899.81;;;28.41;73.17
35419;BME280;21525;41.240;16.500;2023-06-10T01:28:12;100899.72;;;28.73;71.71
35419;BME280;21525;41.240;16.500;2023-06-10T01:30:46;100900.03;;;28.59;71.11
35419;BME280;21525;41.240;16.500;2023-06-10T01:33:28;100894.09;;;28.76;69.96
35419;BME280;21525;41.240;16.500;2023-06-10T01:35:59;100890.66;;;29.16;68.30
35419;BME280;21525;41.240;16.500;2023-06-10T01:38:31;100891.38;;;28.88;68.21
35419;BME280;21525;41.240;16.500;2023-06-10T01:40:58;100890.81;;;28.94;66.52
35419;BME280;21525;41.240;16.500;2023-06-10T01:43:24;100888.00;;;28.86;66.81
35419;BME280;21525;41.240;16.500;2023-06-10T01:45:50;100884.81;;;28.81;66.38
35419;BME280;21525;41.240;16.500;2023-06-10T01:48:16;100887.50;;;28.60;66.37
35419;BME280;21525;41.240;16.500;2023-06-10T01:50:42;100884.06;;;28.90;65.76
35419;BME280;21525;41.240;16.500;2023-06-10T01:53:09;100891.06;;;28.81;65.21
35419;BME280;21525;41.240;16.500;2023-06-10T01:55:35;100881.38;;;28.90;64.56
35419;BME280;21525;41.240;16.500;2023-06-10T01:58:01;100885.19;;;28.87;64.21
35419;BME280;21525;41.240;16.500;2023-06-10T02:00:26;100877.63;;;29.02;63.76
35419;BME280;21525;41.240;16.500;2023-06-10T02:02:52;100879.94;;;29.26;62.20
35419;BME280;21525;41.240;16.500;2023-06-10T02:05:19;100882.06;;;28.92;62.75
35419;BME280;21525;41.240;16.500;2023-06-10T02:07:44;100876.63;;;29.03;62.79
35419;BME280;21525;41.240;16.500;2023-06-10T02:10:10;100880.47;;;29.10;61.58
35419;BME280;21525;41.240;16.500;2023-06-10T02:12:36;100878.25;;;28.64;63.37
35419;BME280;21525;41.240;16.500;2023-06-10T02:15:02;100874.63;;;28.95;61.85
35419;BME280;21525;41.240;16.500;2023-06-10T02:17:29;100870.16;;;28.75;63.14
35419;BME280;21525;41.240;16.500;2023-06-10T02:19:55;100875.09;;;28.80;62.96
35419;BME280;21525;41.240;16.500;2023-06-10T02:22:23;100875.50;;;28.75;62.37
35419;BME280;21525;41.240;16.500;2023-06-10T02:24:49;100875.59;;;28.85;62.67
35419;BME280;21525;41.240;16.500;2023-06-10T02:27:15;100870.91;;;28.56;63.38
35419;BME280;21525;41.240;16.500;2023-06-10T02:29:41;100873.34;;;28.69;62.95
35419;BME280;21525;41.240;16.500;2023-06-10T02:32:07;100864.47;;;28.68;63.06
35419;BME280;21525;41.240;16.500;2023-06-10T02:34:33;100863.50;;;28.90;62.79
35419;BME280;21525;41.240;16.500;2023-06-10T02:37:00;100859.63;;;28.62;63.02
35419;BME280;21525;41.240;16.500;2023-06-10T02:39:27;100851.25;;;28.97;61.95
35419;BME280;21525;41.240;16.500;2023-06-10T02:41:53;100862.31;;;28.62;62.81
35419;BME280;21525;41.240;16.500;2023-06-10T02:44:20;100860.28;;;28.75;62.05
35419;BME280;21525;41.240;16.500;2023-06-10T02:46:46;100858.81;;;28.41;63.83
35419;BME280;21525;41.240;16.500;2023-06-10T02:49:12;100863.41;;;28.50;64.24
35419;BME280;21525;41.240;16.500;2023-06-10T02:51:38;100865.09;;;28.51;63.59
35419;BME280;21525;41.240;16.500;2023-06-10T02:54:04;100853.91;;;28.67;62.70
35419;BME280;21525;41.240;16.500;2023-06-10T02:56:30;100869.38;;;28.63;62.31
35419;BME280;21525;41.240;16.500;2023-06-10T02:59:00;100860.34;;;28.64;62.83
35419;BME280;21525;41.240;16.500;2023-06-10T03:01:27;100864.56;;;28.57;62.98
35419;BME280;21525;41.240;16.500;2023-06-10T03:04:01;100861.03;;;28.57;62.07
35419;BME280;21525;41.240;16.500;2023-06-10T03:06:27;100858.03;;;28.29;63.74
35419;BME280;21525;41.240;16.500;2023-06-10T03:09:04;100861.31;;;28.54;62.53
35419;BME280;21525;41.240;16.500;2023-06-10T03:11:30;100853.41;;;28.52;62.32
35419;BME280;21525;41.240;16.500;2023-06-10T03:13:57;100868.47;;;28.53;63.38
35419;BME280;21525;41.240;16.500;2023-06-10T03:16:23;100856.53;;;28.57;62.79
35419;BME280;21525;41.240;16.500;2023-06-10T03:18:51;100860.75;;;28.60;62.30
35419;BME280;21525;41.240;16.500;2023-06-10T03:21:17;100867.19;;;28.48;62.62
35419;BME280;21525;41.240;16.500;2023-06-10T03:23:43;100862.69;;;28.48;62.66
35419;BME280;21525;41.240;16.500;2023-06-10T03:26:11;100864.22;;;28.30;63.53
35419;BME280;21525;41.240;16.500;2023-06-10T03:28:40;100862.03;;;28.56;62.71
35419;BME280;21525;41.240;16.500;2023-06-10T03:31:07;100858.03;;;28.50;62.78
35419;BME280;21525;41.240;16.500;2023-06-10T03:33:34;100857.47;;;28.26;63.29
35419;BME280;21525;41.240;16.500;2023-06-10T03:36:01;100862.53;;;28.29;63.08
35419;BME280;21525;41.240;16.500;2023-06-10T03:38:28;100850.34;;;28.57;61.43
35419;BME280;21525;41.240;16.500;2023-06-10T03:40:53;100860.13;;;28.47;61.68
35419;BME280;21525;41.240;16.500;2023-06-10T03:43:19;100857.59;;;28.45;61.39
35419;BME280;21525;41.240;16.500;2023-06-10T03:45:46;100856.53;;;28.36;61.29
35419;BME280;21525;41.240;16.500;2023-06-10T03:48:12;100857.47;;;28.47;61.40
35419;BME280;21525;41.240;16.500;2023-06-10T03:50:45;100858.84;;;28.71;60.59
35419;BME280;21525;41.240;16.500;2023-06-10T03:53:13;100857.56;;;28.87;59.34
35419;BME280;21525;41.240;16.500;2023-06-10T03:55:41;100864.34;;;28.91;58.90
35419;BME280;21525;41.240;16.500;2023-06-10T03:58:07;100868.63;;;28.52;59.96
35419;BME280;21525;41.240;16.500;2023-06-10T04:00:33;100861.97;;;28.76;59.93
35419;BME280;21525;41.240;16.500;2023-06-10T04:03:08;100857.81;;;28.84;58.81
35419;BME280;21525;41.240;16.500;2023-06-10T04:05:38;100858.28;;;28.89;58.75
35419;BME280;21525;41.240;16.500;2023-06-10T04:08:04;100859.78;;;28.82;58.43
35419;BME280;21525;41.240;16.500;2023-06-10T04:10:30;100862.38;;;28.72;59.32
35419;BME280;21525;41.240;16.500;2023-06-10T04:12:56;100860.22;;;29.17;57.53
35419;BME280;21525;41.240;16.500;2023-06-10T04:15:25;100861.13;;;28.76;58.63
35419;BME280;21525;41.240;16.500;2023-06-10T04:17:51;100854.88;;;28.87;58.26
35419;BME280;21525;41.240;16.500;2023-06-10T04:20:20;100857.56;;;28.87;58.39
35419;BME280;21525;41.240;16.500;2023-06-10T04:22:47;100853.56;;;29.52;56.79
35419;BME280;21525;41.240;16.500;2023-06-10T04:25:14;100859.81;;;29.22;57.62
35419;BME280;21525;41.240;16.500;2023-06-10T04:27:41;100857.66;;;29.25;56.96
35419;BME280;21525;41.240;16.500;2023-06-10T04:30:07;100854.31;;;29.33;57.35
35419;BME280;21525;41.240;16.500;2023-06-10T04:32:35;100850.03;;;29.90;55.76
35419;BME280;21525;41.240;16.500;2023-06-10T04:35:01;100848.75;;;30.32;54.20
35419;BME280;21525;41.240;16.500;2023-06-10T04:37:28;100838.38;;;31.03;51.99
35419;BME280;21525;41.240;16.500;2023-06-10T04:39:54;100850.72;;;30.87;52.19
35419;BME280;21525;41.240;16.500;2023-06-10T04:42:20;100845.88;;;31.00;51.63
35419;BME280;21525;41.240;16.500;2023-06-10T04:44:46;100858.63;;;31.25;51.13
35419;BME280;21525;41.240;16.500;2023-06-10T04:47:13;100845.78;;;31.64;50.08
35419;BME280;21525;41.240;16.500;2023-06-10T04:49:38;100845.50;;;32.72;47.92
35419;BME280;21525;41.240;16.500;2023-06-10T04:52:04;100842.53;;;32.76;47.02
35419;BME280;21525;41.240;16.500;2023-06-10T04:54:34;100844.78;;;32.19;47.76
35419;BME280;21525;41.240;16.500;2023-06-10T04:57:00;100848.94;;;32.57;47.27
35419;BME280;21525;41.240;16.500;2023-06-10T04:59:26;100848.00;;;32.40;47.39
35419;BME280;21525;41.240;16.500;2023-06-10T05:01:52;100849.00;;;32.39;47.42
35419;BME280;21525;41.240;16.500;2023-06-10T05:04:17;100849.72;;;32.49;47.67
35419;BME280;21525;41.240;16.500;2023-06-10T05:06:43;100842.44;;;32.93;46.76
35419;BME280;21525;41.240;16.500;2023-06-10T05:09:09;100845.72;;;33.80;45.48
35419;BME280;21525;41.240;16.500;2023-06-10T05:11:35;100844.72;;;33.89;44.45
35419;BME280;21525;41.240;16.500;2023-06-10T05:14:01;100847.09;;;33.92;44.20
35419;BME280;21525;41.240;16.500;2023-06-10T05:16:26;100845.16;;;33.52;45.13
35419;BME280;21525;41.240;16.500;2023-06-10T05:18:53;100852.88;;;33.30;45.68
35419;BME280;21525;41.240;16.500;2023-06-10T05:21:19;100853.59;;;33.07;46.04
35419;BME280;21525;41.240;16.500;2023-06-10T05:23:46;100858.69;;;32.76;46.58
35419;BME280;21525;41.240;16.500;2023-06-10T05:26:11;100860.94;;;32.36;47.67
35419;BME280;21525;41.240;16.500;2023-06-10T05:28:37;100857.75;;;31.80;48.48
35419;BME280;21525;41.240;16.500;2023-06-10T05:31:03;100857.41;;;32.00;48.75
35419;BME280;21525;41.240;16.500;2023-06-10T05:33:29;100858.06;;;32.20;48.44
35419;BME280;21525;41.240;16.500;2023-06-10T05:35:54;100860.09;;;32.00;48.96
35419;BME280;21525;41.240;16.500;2023-06-10T05:38:20;100861.34;;;31.88;49.13
35419;BME280;21525;41.240;16.500;2023-06-10T05:40:46;100863.31;;;31.86;48.11
35419;BME280;21525;41.240;16.500;2023-06-10T05:43:12;100861.81;;;31.84;48.22
35419;BME280;21525;41.240;16.500;2023-06-10T05:45:37;100866.03;;;32.04;47.75
35419;BME280;21525;41.240;16.500;2023-06-10T05:48:03;100869.56;;;31.87;48.01
35419;BME280;21525;41.240;16.500;2023-06-10T05:50:29;100867.66;;;31.79;47.93
35419;BME280;21525;41.240;16.500;2023-06-10T05:52:55;100878.59;;;31.50;48.77
35419;BME280;21525;41.240;16.500;2023-06-10T05:55:21;100879.38;;;31.33;49.60
35419;BME280;21525;41.240;16.500;2023-06-10T05:57:46;100883.13;;;31.50;49.54
35419;BME280;21525;41.240;16.500;2023-06-10T06:00:13;100881.09;;;31.52;49.80
35419;BME280;21525;41.240;16.500;2023-06-10T06:02:38;100886.19;;;31.55;49.29
35419;BME280;21525;41.240;16.500;2023-06-10T06:05:05;100885.31;;;31.54;50.12
35419;BME280;21525;41.240;16.500;2023-06-10T06:07:30;100883.13;;;31.50;49.95
35419;BME280;21525;41.240;16.500;2023-06-10T06:09:56;100889.25;;;31.60;49.70
35419;BME280;21525;41.240;16.500;2023-06-10T06:12:22;100886.72;;;31.58;49.63
35419;BME280;21525;41.240;16.500;2023-06-10T06:14:48;100888.81;;;31.47;49.99
35419;BME280;21525;41.240;16.500;2023-06-10T06:17:14;100893.03;;;31.49;50.18
35419;BME280;21525;41.240;16.500;2023-06-10T06:19:40;100883.63;;;31.53;50.03
35419;BME280;21525;41.240;16.500;2023-06-10T06:22:06;100887.09;;;31.46;49.94
35419;BME280;21525;41.240;16.500;2023-06-10T06:24:31;100898.38;;;31.22;50.77
35419;BME280;21525;41.240;16.500;2023-06-10T06:26:57;100904.94;;;31.47;50.70
35419;BME280;21525;41.240;16.500;2023-06-10T06:29:23;100904.25;;;31.62;49.88
35419;BME280;21525;41.240;16.500;2023-06-10T06:31:48;100896.09;;;31.54;50.42
35419;BME280;21525;41.240;16.500;2023-06-10T06:34:14;100894.34;;;31.63;50.34
35419;BME280;21525;41.240;16.500;2023-06-10T06:36:40;100907.22;;;31.42;51.77
35419;BME280;21525;41.240;16.500;2023-06-10T06:39:06;100898.72;;;31.46;52.27
35419;BME280;21525;41.240;16.500;2023-06-10T06:41:32;100900.94;;;31.51;52.14
35419;BME280;21525;41.240;16.500;2023-06-10T06:43:58;100908.75;;;31.44;53.09
35419;BME280;21525;41.240;16.500;2023-06-10T06:46:29;100904.00;;;31.56;52.78
35419;BME280;21525;41.240;16.500;2023-06-10T06:48:55;100906.25;;;31.60;52.50
35419;BME280;21525;41.240;16.500;2023-06-10T06:51:21;100905.38;;;31.69;52.58
35419;BME280;21525;41.240;16.500;2023-06-10T06:53:47;100908.31;;;31.49;53.33
35419;BME280;21525;41.240;16.500;2023-06-10T06:56:15;100909.50;;;31.36;53.81
35419;BME280;21525;41.240;16.500;2023-06-10T06:58:41;100913.28;;;31.16;54.50
35419;BME280;21525;41.240;16.500;2023-06-10T07:01:07;100907.56;;;31.29;54.34
35419;BME280;21525;41.240;16.500;2023-06-10T07:03:33;100900.50;;;31.28;54.42
35419;BME280;21525;41.240;16.500;2023-06-10T07:05:58;100910.06;;;31.03;55.42
35419;BME280;21525;41.240;16.500;2023-06-10T07:08:24;100906.56;;;31.30;55.06
35419;BME280;21525;41.240;16.500;2023-06-10T07:10:50;100905.59;;;31.21;55.98
35419;BME280;21525;41.240;16.500;2023-06-10T07:13:15;100903.47;;;31.25;56.61
35419;BME280;21525;41.240;16.500;2023-06-10T07:15:41;100901.22;;;31.20;57.63
35419;BME280;21525;41.240;16.500;2023-06-10T07:18:07;100900.69;;;30.70;nan
35419;BME280;21525;41.240;16.500;2023-06-10T07:20:33;100906.00;;;30.89;59.22
35419;BME280;21525;41.240;16.500;2023-06-10T07:22:58;100907.25;;;30.95;59.39
35419;BME280;21525;41.240;16.500;2023-06-10T07:25:24;100900.56;;;31.18;58.43
35419;BME280;21525;41.240;16.500;2023-06-10T07:27:50;100905.28;;;31.34;57.06
35419;BME280;21525;41.240;16.500;2023-06-10T07:30:15;100900.00;;;31.05;58.11
35419;BME280;21525;41.240;16.500;2023-06-10T07:32:41;100900.53;;;31.73;56.31
35419;BME280;21525;41.240;16.500;2023-06-10T07:35:09;100904.81;;;31.38;57.36
35419;BME280;21525;41.240;16.500;2023-06-10T07:37:38;100906.13;;;31.34;57.85
35419;BME280;21525;41.240;16.500;2023-06-10T07:40:06;100902.22;;;31.19;57.40
35419;BME280;21525;41.240;16.500;2023-06-10T07:42:35;100911.59;;;31.43;57.39
35419;BME280;21525;41.240;16.500;2023-06-10T07:45:02;100914.44;;;31.68;56.72
35419;BME280;21525;41.240;16.500;2023-06-10T07:47:29;100911.22;;;31.55;56.73
35419;BME280;21525;41.240;16.500;2023-06-10T07:49:55;100920.66;;;31.69;56.10
35419;BME280;21525;41.240;16.500;2023-06-10T07:52:21;100912.75;;;31.67;56.61
35419;BME280;21525;41.240;16.500;2023-06-10T07:54:47;100917.56;;;31.36;56.56
35419;BME280;21525;41.240;16.500;2023-06-10T07:57:13;100915.31;;;31.32;56.83
35419;BME280;21525;41.240;16.500;2023-06-10T07:59:39;100914.03;;;31.36;56.49
35419;BME280;21525;41.240;16.500;2023-06-10T08:02:05;100927.09;;;31.21;57.13
35419;BME280;21525;41.240;16.500;2023-06-10T08:04:31;100927.50;;;31.54;56.93
35419;BME280;21525;41.240;16.500;2023-06-10T08:06:57;100923.59;;;31.76;56.82
35419;BME280;21525;41.240;16.500;2023-06-10T08:09:24;100927.72;;;31.70;57.54
35419;BME280;21525;41.240;16.500;2023-06-10T08:11:50;100929.66;;;31.50;58.15
35419;BME280;21525;41.240;16.500;2023-06-10T08:14:16;100935.81;;;31.33;58.04
35419;BME280;21525;41.240;16.500;2023-06-10T08:16:43;100933.78;;;31.45;57.93
35419;BME280;21525;41.240;16.500;2023-06-10T08:19:08;100927.31;;;31.37;58.71
35419;BME280;21525;41.240;16.500;2023-06-10T08:21:35;100933.25;;;31.41;58.35
35419;BME280;21525;41.240;16.500;2023-06-10T08:24:03;100933.09;;;31.70;57.50
35419;BME280;21525;41.240;16.500;2023-06-10T08:26:29;100935.09;;;31.68;58.25
35419;BME280;21525;41.240;16.500;2023-06-10T08:28:55;100937.94;;;31.57;59.09
35419;BME280;21525;41.240;16.500;2023-06-10T08:31:21;100938.22;;;31.36;60.15
35419;BME280;21525;41.240;16.500;2023-06-10T08:33:47;100933.03;;;31.52;60.13
35419;BME280;21525;41.240;16.500;2023-06-10T08:36:13;100938.09;;;31.28;60.66
35419;BME280;21525;41.240;16.500;2023-06-10T08:38:38;100943.97;;;31.14;62.15
35419;BME280;21525;41.240;16.500;2023-06-10T08:41:05;100937.19;;;31.47;61.32
35419;BME280;21525;41.240;16.500;2023-06-10T08:43:44;100947.09;;;31.46;59.97
35419;BME280;21525;41.240;16.500;2023-06-10T08:46:11;100950.81;;;31.35;59.18
35419;BME280;21525;41.240;16.500;2023-06-10T08:48:43;100952.50;;;31.36;59.47
35419;BME280;21525;41.240;16.500;2023-06-10T08:51:10;100956.28;;;30.97;60.13
35419;BME280;21525;41.240;16.500;2023-06-10T08:53:38;100951.25;;;31.31;59.69
35419;BME280;21525;41.240;16.500;2023-06-10T08:56:10;100959.06;;;31.24;59.87
35419;BME280;21525;41.240;16.500;2023-06-10T08:58:37;100966.69;;;31.29;59.77
35419;BME280;21525;41.240;16.500;2023-06-10T09:01:08;100962.78;;;31.51;59.51
35419;BME280;21525;41.240;16.500;2023-06-10T09:03:37;100965.94;;;31.36;60.69
35419;BME280;21525;41.240;16.500;2023-06-10T09:06:06;100966.38;;;31.32;61.05
35419;BME280;21525;41.240;16.500;2023-06-10T09:08:35;100974.28;;;31.33;61.29
35419;BME280;21525;41.240;16.500;2023-06-10T09:11:01;100978.25;;;31.39;61.55
35419;BME280;21525;41.240;16.500;2023-06-10T09:13:27;100975.63;;;31.20;62.23
35419;BME280;21525;41.240;16.500;2023-06-10T09:15:53;100979.50;;;31.45;61.89
35419;BME280;21525;41.240;16.500;2023-06-10T09:18:22;100975.94;;;31.17;64.73
35419;BME280;21525;41.240;16.500;2023-06-10T09:20:48;100981.44;;;31.05;65.90
35419;BME280;21525;41.240;16.500;2023-06-10T09:23:15;100976.06;;;31.05;66.98
35419;BME280;21525;41.240;16.500;2023-06-10T09:25:40;100980.97;;;31.29;65.93
35419;BME280;21525;41.240;16.500;2023-06-10T09:28:14;100982.84;;;31.10;68.33
35419;BME280;21525;41.240;16.500;2023-06-10T09:30:40;100979.19;;;31.01;69.97
35419;BME280;21525;41.240;16.500;2023-06-10T09:33:14;100977.22;;;30.93;71.05
35419;BME280;21525;41.240;16.500;2023-06-10T09:35:49;100973.97;;;30.90;71.72
35419;BME280;21525;41.240;16.500;2023-06-10T09:38:30;100980.31;;;31.08;71.46
35419;BME280;21525;41.240;16.500;2023-06-10T09:40:57;100980.31;;;30.98;73.66
35419;BME280;21525;41.240;16.500;2023-06-10T09:43:41;100982.56;;;31.03;73.18
35419;BME280;21525;41.240;16.500;2023-06-10T09:46:17;100974.81;;;31.00;74.28
35419;BME280;21525;41.240;16.500;2023-06-10T09:48:45;100974.69;;;30.92;74.08
35419;BME280;21525;41.240;16.500;2023-06-10T09:51:13;100975.66;;;31.00;73.03
35419;BME280;21525;41.240;16.500;2023-06-10T09:53:39;100975.81;;;30.89;75.28
35419;BME280;21525;41.240;16.500;2023-06-10T09:56:06;100979.53;;;30.79;74.76
35419;BME280;21525;41.240;16.500;2023-06-10T09:58:36;100973.13;;;30.99;72.48
35419;BME280;21525;41.240;16.500;2023-06-10T10:01:13;100973.53;;;31.04;71.77
35419;BME280;21525;41.240;16.500;2023-06-10T10:03:52;100976.63;;;31.09;73.34
35419;BME280;21525;41.240;16.500;2023-06-10T10:06:19;100975.28;;;30.86;74.06
35419;BME280;21525;41.240;16.500;2023-06-10T10:08:47;100967.03;;;31.06;72.13
35419;BME280;21525;41.240;16.500;2023-06-10T10:11:18;100976.47;;;31.11;72.50
35419;BME280;21525;41.240;16.500;2023-06-10T10:13:48;100971.84;;;31.03;70.30
35419;BME280;21525;41.240;16.500;2023-06-10T10:16:16;100976.22;;;30.94;72.00
35419;BME280;21525;41.240;16.500;2023-06-10T10:18:54;100974.72;;;30.82;70.99
35419;BME280;21525;41.240;16.500;2023-06-10T10:21:23;100984.56;;;30.91;71.73
35419;BME280;21525;41.240;16.500;2023-06-10T10:24:05;100988.25;;;31.00;70.83
35419;BME280;21525;41.240;16.500;2023-06-10T10:26:34;100979.75;;;31.14;69.47
35419;BME280;21525;41.240;16.500;2023-06-10T10:31:44;100973.44;;;30.86;68.29
35419;BME280;21525;41.240;16.500;2023-06-10T10:34:29;100971.25;;;31.19;66.94
35419;BME280;21525;41.240;16.500;2023-06-10T10:36:57;100976.66;;;30.90;66.29
35419;BME280;21525;41.240;16.500;2023-06-10T10:39:23;100982.78;;;30.82;66.28
35419;BME280;21525;41.240;16.500;2023-06-10T10:41:50;100981.41;;;31.25;63.42
35419;BME280;21525;41.240;16.500;2023-06-10T10:44:16;100974.97;;;30.89;65.72
35419;BME280;21525;41.240;16.500;2023-06-10T10:46:50;100983.69;;;31.20;66.08
35419;BME280;21525;41.240;16.500;2023-06-10T10:49:17;100986.28;;;31.49;65.10
35419;BME280;21525;41.240;16.500;2023-06-10T10:52:00;100991.13;;;31.63;62.93
35419;BME280;21525;41.240;16.500;2023-06-10T10:54:29;100987.75;;;31.24;65.10
35419;BME280;21525;41.240;16.500;2023-06-10T10:57:16;100983.75;;;31.65;62.59
35419;BME280;21525;41.240;16.500;2023-06-10T11:02:18;100985.63;;;31.27;64.64
35419;BME280;21525;41.240;16.500;2023-06-10T11:04:46;100984.84;;;30.98;66.37
35419;BME280;21525;41.240;16.500;2023-06-10T11:07:12;100980.66;;;31.32;64.98
35419;BME280;21525;41.240;16.500;2023-06-10T11:10:10;100982.22;;;31.35;65.30
35419;BME280;21525;41.240;16.500;2023-06-10T11:15:12;100973.47;;;30.77;67.33
35419;BME280;21525;41.240;16.500;2023-06-10T11:31:19;100967.13;;;30.20;69.13
35419;BME280;21525;41.240;16.500;2023-06-10T11:33:53;100965.03;;;29.73;72.29
35419;BME280;21525;41.240;16.500;2023-06-10T11:36:19;100964.06;;;29.74;73.67
35419;BME280;21525;41.240;16.500;2023-06-10T11:38:45;100962.59;;;30.30;69.60
35419;BME280;21525;41.240;16.500;2023-06-10T11:41:14;100961.03;;;30.18;70.62
35419;BME280;21525;41.240;16.500;2023-06-10T11:43:44;100951.53;;;29.85;72.13
35419;BME280;21525;41.240;16.500;2023-06-10T11:46:14;100950.91;;;29.71;72.50
35419;BME280;21525;41.240;16.500;2023-06-10T11:48:51;100945.34;;;30.52;69.05
35419;BME280;21525;41.240;16.500;2023-06-10T11:51:17;100945.53;;;30.21;71.24
35419;BME280;21525;41.240;16.500;2023-06-10T11:53:44;100950.91;;;30.97;67.68
35419;BME280;21525;41.240;16.500;2023-06-10T11:56:10;100947.03;;;30.24;72.21
35419;BME280;21525;41.240;16.500;2023-06-10T11:58:36;100952.28;;;29.47;75.84
35419;BME280;21525;41.240;16.500;2023-06-10T12:01:02;100948.56;;;29.88;75.65
35419;BME280;21525;41.240;16.500;2023-06-10T12:03:36;100945.94;;;30.17;74.32
35419;BME280;21525;41.240;16.500;2023-06-10T12:06:04;100955.09;;;30.33;71.90
35419;BME280;21525;41.240;16.500;2023-06-10T12:08:30;100942.75;;;29.73;77.30
35419;BME280;21525;41.240;16.500;2023-06-10T12:10:57;100937.00;;;29.87;76.70
35419;BME280;21525;41.240;16.500;2023-06-10T12:13:26;100937.06;;;30.92;69.95
35419;BME280;21525;41.240;16.500;2023-06-10T12:15:53;100933.19;;;30.77;70.24
35419;BME280;21525;41.240;16.500;2023-06-10T12:18:20;100934.34;;;30.26;73.47
35419;BME280;21525;41.240;16.500;2023-06-10T12:20:46;100932.47;;;30.74;70.16
35419;BME280;21525;41.240;16.500;2023-06-10T12:23:14;100920.22;;;30.43;71.09
35419;BME280;21525;41.240;16.500;2023-06-10T12:25:52;100920.22;;;30.24;70.69
35419;BME280;21525;41.240;16.500;2023-06-10T12:28:23;100918.22;;;30.26;68.97
35419;BME280;21525;41.240;16.500;2023-06-10T12:30:50;100913.13;;;29.84;68.65
35419;BME280;21525;41.240;16.500;2023-06-10T12:33:20;100915.91;;;29.23;70.34
35419;BME280;21525;41.240;16.500;2023-06-10T12:35:50;100911.38;;;29.64;67.99
35419;BME280;21525;41.240;16.500;2023-06-10T12:38:23;100914.28;;;30.30;65.49
35419;BME280;21525;41.240;16.500;2023-06-10T12:40:50;100906.97;;;30.13;65.21
35419;BME280;21525;41.240;16.500;2023-06-10T12:43:22;100906.13;;;30.12;63.69
35419;BME280;21525;41.240;16.500;2023-06-10T12:45:49;100904.09;;;29.85;65.23
35419;BME280;21525;41.240;16.500;2023-06-10T12:48:22;100901.97;;;30.66;61.34
35419;BME280;21525;41.240;16.500;2023-06-10T12:50:53;100895.06;;;30.44;62.10
35419;BME280;21525;41.240;16.500;2023-06-10T12:53:19;100899.16;;;30.48;61.00
35419;BME280;21525;41.240;16.500;2023-06-10T12:55:46;100898.06;;;30.88;61.29
35419;BME280;21525;41.240;16.500;2023-06-10T12:58:13;100891.56;;;31.27;59.23
35419;BME280;21525;41.240;16.500;2023-06-10T13:00:39;100893.38;;;30.99;60.39
35419;BME280;21525;41.240;16.500;2023-06-10T13:03:08;100885.72;;;30.58;61.03
35419;BME280;21525;41.240;16.500;2023-06-10T13:05:35;100889.63;;;30.83;60.69
35419;BME280;21525;41.240;16.500;2023-06-10T13:08:07;100881.09;;;30.40;62.18